sensor_id;sensor_type;location;lat;lon;timestamp;temperature;humidity
19898;DHT22;10111;50.814;4.572;2023-07-29T00:01:34;21.30;99.90
19898;DHT22;10111;50.814;4.572;2023-07-29T00:04:00;21.20;99.90
19898;DHT22;10111;50.814;4.572;2023-07-29T00:06:26;21.20;99.90
19898;DHT22;10111;50.814;4.572;2023-07-29T00:08:52;21.20;99.90
19898;DHT22;10111;50.814;4.572;2023-07-29T00:11:18;21.10;99.90
19898;DHT22;10111;50.814;4.572;2023-07-29T00:13:43;21.10;99.90
19898;DHT22;10111;50.814;4.572;2023-07-29T00:16:09;21.10;99.90
19898;DHT22;10111;50.814;4.572;2023-07-29T00:18:35;21.10;99.90
19898;DHT22;10111;50.814;4.572;2023-07-29T00:21:01;21.00;99.90
19898;DHT22;10111;50.814;4.572;2023-07-29T00:23:27;21.00;99.90
19898;DHT22;10111;50.814;4.572;2023-07-29T00:25:52;21.00;99.90
19898;DHT22;10111;50.814;4.572;2023-07-29T00:28:18;21.00;99.90
19898;DHT22;10111;50.814;4.572;2023-07-29T00:30:44;20.90;99.90
19898;DHT22;10111;50.814;4.572;2023-07-29T00:33:09;20.80;99.90
19898;DHT22;10111;50.814;4.572;2023-07-29T00:35:35;20.70;99.90
19898;DHT22;10111;50.814;4.572;2023-07-29T00:38:01;20.70;99.90
19898;DHT22;10111;50.814;4.572;2023-07-29T00:40:28;20.70;99.90
19898;DHT22;10111;50.814;4.572;2023-07-29T00:42:54;20.60;99.90
19898;DHT22;10111;50.814;4.572;2023-07-29T00:45:20;20.60;99.90
19898;DHT22;10111;50.814;4.572;2023-07-29T00:47:47;20.60;99.90
19898;DHT22;10111;50.814;4.572;2023-07-29T00:50:13;20.50;99.90
19898;DHT22;10111;50.814;4.572;2023-07-29T00:52:40;20.50;99.90
19898;DHT22;10111;50.814;4.572;2023-07-29T00:55:07;20.50;99.90
19898;DHT22;10111;50.814;4.572;2023-07-29T00:57:33;20.40;99.90
19898;DHT22;10111;50.814;4.572;2023-07-29T01:00:00;20.40;99.90
19898;DHT22;10111;50.814;4.572;2023-07-29T01:02:26;20.20;99.90
19898;DHT22;10111;50.814;4.572;2023-07-29T01:04:57;20.10;99.90
19898;DHT22;10111;50.814;4.572;2023-07-29T01:10:10;20.00;99.90
19898;DHT22;10111;50.814;4.572;2023-07-29T01:12:53;20.00;99.90
19898;DHT22;10111;50.814;4.572;2023-07-29T01:15:41;20.00;99.90
19898;DHT22;10111;50.814;4.572;2023-07-29T01:18:20;20.00;99.90
19898;DHT22;10111;50.814;4.572;2023-07-29T01:20:48;20.00;99.90
19898;DHT22;10111;50.814;4.572;2023-07-29T01:23:15;20.00;99.90
19898;DHT22;10111;50.814;4.572;2023-07-29T01:25:41;20.00;99.90
19898;DHT22;10111;50.814;4.572;2023-07-29T01:28:07;20.00;99.90
19898;DHT22;10111;50.814;4.572;2023-07-29T01:30:39;19.90;99.90
19898;DHT22;10111;50.814;4.572;2023-07-29T01:33:20;19.90;99.90
19898;DHT22;10111;50.814;4.572;2023-07-29T01:36:18;19.90;99.90
19898;DHT22;10111;50.814;4.572;2023-07-29T01:38:46;19.90;99.90
19898;DHT22;10111;50.814;4.572;2023-07-29T01:41:13;19.90;99.90
19898;DHT22;10111;50.814;4.572;2023-07-29T01:43:40;19.80;99.90
19898;DHT22;10111;50.814;4.572;2023-07-29T01:46:12;19.80;99.90
19898;DHT22;10111;50.814;4.572;2023-07-29T01:48:39;19.80;99.90
19898;DHT22;10111;50.814;4.572;2023-07-29T01:51:05;19.80;99.90
19898;DHT22;10111;50.814;4.572;2023-07-29T01:53:31;19.70;99.90
19898;DHT22;10111;50.814;4.572;2023-07-29T01:55:57;19.70;99.90
19898;DHT22;10111;50.814;4.572;2023-07-29T01:58:23;19.70;99.90
19898;DHT22;10111;50.814;4.572;2023-07-29T02:00:48;19.60;99.90
19898;DHT22;10111;50.814;4.572;2023-07-29T02:03:14;19.60;99.90
19898;DHT22;10111;50.814;4.572;2023-07-29T02:05:40;19.60;99.90
19898;DHT22;10111;50.814;4.572;2023-07-29T02:08:07;19.60;99.90
19898;DHT22;10111;50.814;4.572;2023-07-29T02:10:32;19.50;99.90
19898;DHT22;10111;50.814;4.572;2023-07-29T02:12:58;19.50;99.90
19898;DHT22;10111;50.814;4.572;2023-07-29T02:15:24;19.50;99.90
19898;DHT22;10111;50.814;4.572;2023-07-29T02:17:50;19.50;99.90
19898;DHT22;10111;50.814;4.572;2023-07-29T02:20:17;19.50;99.90
19898;DHT22;10111;50.814;4.572;2023-07-29T02:22:43;19.50;99.90
19898;DHT22;10111;50.814;4.572;2023-07-29T02:25:08;19.50;99.90
19898;DHT22;10111;50.814;4.572;2023-07-29T02:27:35;19.40;99.90
19898;DHT22;10111;50.814;4.572;2023-07-29T02:30:01;19.40;99.90
19898;DHT22;10111;50.814;4.572;2023-07-29T02:32:27;19.40;99.90
19898;DHT22;10111;50.814;4.572;2023-07-29T02:34:53;19.40;99.90
19898;DHT22;10111;50.814;4.572;2023-07-29T02:37:19;19.40;99.90
19898;DHT22;10111;50.814;4.572;2023-07-29T02:39:45;19.30;99.90
19898;DHT22;10111;50.814;4.572;2023-07-29T02:42:11;19.30;99.90
19898;DHT22;10111;50.814;4.572;2023-07-29T02:44:37;19.40;99.90
19898;DHT22;10111;50.814;4.572;2023-07-29T02:47:03;19.30;99.90
19898;DHT22;10111;50.814;4.572;2023-07-29T02:49:29;19.30;99.90
19898;DHT22;10111;50.814;4.572;2023-07-29T02:51:54;19.30;99.90
19898;DHT22;10111;50.814;4.572;2023-07-29T02:54:20;19.30;99.90
19898;DHT22;10111;50.814;4.572;2023-07-29T02:56:46;19.30;99.90
19898;DHT22;10111;50.814;4.572;2023-07-29T02:59:11;19.30;99.90
19898;DHT22;10111;50.814;4.572;2023-07-29T03:01:37;19.30;99.90
19898;DHT22;10111;50.814;4.572;2023-07-29T03:04:03;19.20;99.90
19898;DHT22;10111;50.814;4.572;2023-07-29T03:06:28;19.30;99.90
19898;DHT22;10111;50.814;4.572;2023-07-29T03:08:54;19.30;99.90
19898;DHT22;10111;50.814;4.572;2023-07-29T03:11:20;19.30;99.90
19898;DHT22;10111;50.814;4.572;2023-07-29T03:13:45;19.30;99.90
19898;DHT22;10111;50.814;4.572;2023-07-29T03:16:16;19.30;99.90
19898;DHT22;10111;50.814;4.572;2023-07-29T03:18:43;19.30;99.90
19898;DHT22;10111;50.814;4.572;2023-07-29T03:21:10;19.30;99.90
19898;DHT22;10111;50.814;4.572;2023-07-29T03:23:37;19.30;99.90
19898;DHT22;10111;50.814;4.572;2023-07-29T03:26:03;19.30;99.90
19898;DHT22;10111;50.814;4.572;2023-07-29T03:28:40;19.30;99.90
19898;DHT22;10111;50.814;4.572;2023-07-29T03:31:07;19.20;99.90
19898;DHT22;10111;50.814;4.572;2023-07-29T03:33:33;19.20;99.90
19898;DHT22;10111;50.814;4.572;2023-07-29T03:35:58;19.20;99.90
19898;DHT22;10111;50.814;4.572;2023-07-29T03:38:24;19.10;99.90
19898;DHT22;10111;50.814;4.572;2023-07-29T03:40:50;19.10;99.90
19898;DHT22;10111;50.814;4.572;2023-07-29T03:43:16;19.10;99.90
19898;DHT22;10111;50.814;4.572;2023-07-29T03:45:42;19.00;99.90
19898;DHT22;10111;50.814;4.572;2023-07-29T03:48:08;19.00;99.90
19898;DHT22;10111;50.814;4.572;2023-07-29T03:50:35;19.10;99.90
19898;DHT22;10111;50.814;4.572;2023-07-29T03:53:01;19.00;99.90
19898;DHT22;10111;50.814;4.572;2023-07-29T03:55:27;19.00;99.90
19898;DHT22;10111;50.814;4.572;2023-07-29T03:57:56;19.00;99.90
19898;DHT22;10111;50.814;4.572;2023-07-29T04:00:21;19.00;99.90
19898;DHT22;10111;50.814;4.572;2023-07-29T04:02:47;19.00;99.90
19898;DHT22;10111;50.814;4.572;2023-07-29T04:05:13;19.00;99.90
19898;DHT22;10111;50.814;4.572;2023-07-29T04:07:38;19.00;99.90
19898;DHT22;10111;50.814;4.572;2023-07-29T04:10:05;19.10;99.90
19898;DHT22;10111;50.814;4.572;2023-07-29T04:12:31;19.00;99.90
19898;DHT22;10111;50.814;4.572;2023-07-29T04:14:57;19.00;99.90
19898;DHT22;10111;50.814;4.572;2023-07-29T04:17:22;19.00;99.90
19898;DHT22;10111;50.814;4.572;2023-07-29T04:19:48;19.10;99.90
19898;DHT22;10111;50.814;4.572;2023-07-29T04:22:15;19.10;99.90
19898;DHT22;10111;50.814;4.572;2023-07-29T04:24:41;19.10;99.90
19898;DHT22;10111;50.814;4.572;2023-07-29T04:27:07;19.10;99.90
19898;DHT22;10111;50.814;4.572;2023-07-29T04:29:32;19.00;99.90
19898;DHT22;10111;50.814;4.572;2023-07-29T04:31:58;19.30;99.90
19898;DHT22;10111;50.814;4.572;2023-07-29T04:34:24;19.20;99.90
19898;DHT22;10111;50.814;4.572;2023-07-29T04:36:49;19.00;99.90
19898;DHT22;10111;50.814;4.572;2023-07-29T04:39:15;19.00;99.90
19898;DHT22;10111;50.814;4.572;2023-07-29T04:41:41;19.00;99.90
19898;DHT22;10111;50.814;4.572;2023-07-29T04:44:06;19.00;99.90
19898;DHT22;10111;50.814;4.572;2023-07-29T04:46:33;19.00;99.90
19898;DHT22;10111;50.814;4.572;2023-07-29T04:48:58;19.00;99.90
19898;DHT22;10111;50.814;4.572;2023-07-29T04:51:24;19.10;99.90
19898;DHT22;10111;50.814;4.572;2023-07-29T04:53:50;19.10;99.90
19898;DHT22;10111;50.814;4.572;2023-07-29T04:56:16;19.10;99.90
19898;DHT22;10111;50.814;4.572;2023-07-29T04:58:42;19.10;99.90
19898;DHT22;10111;50.814;4.572;2023-07-29T05:01:07;19.10;99.90
19898;DHT22;10111;50.814;4.572;2023-07-29T05:03:33;19.10;99.90
19898;DHT22;10111;50.814;4.572;2023-07-29T05:05:59;19.30;99.90
19898;DHT22;10111;50.814;4.572;2023-07-29T05:08:26;19.30;99.90
19898;DHT22;10111;50.814;4.572;2023-07-29T05:10:52;19.30;99.90
19898;DHT22;10111;50.814;4.572;2023-07-29T05:13:18;19.30;99.90
19898;DHT22;10111;50.814;4.572;2023-07-29T05:15:44;19.30;99.90
19898;DHT22;10111;50.814;4.572;2023-07-29T05:18:11;19.20;99.90
19898;DHT22;10111;50.814;4.572;2023-07-29T05:20:36;19.20;99.90
19898;DHT22;10111;50.814;4.572;2023-07-29T05:23:02;19.20;99.90
19898;DHT22;10111;50.814;4.572;2023-07-29T05:25:28;19.30;99.90
19898;DHT22;10111;50.814;4.572;2023-07-29T05:27:54;19.30;99.90
19898;DHT22;10111;50.814;4.572;2023-07-29T05:30:20;19.40;99.90
19898;DHT22;10111;50.814;4.572;2023-07-29T05:32:45;19.40;99.90
19898;DHT22;10111;50.814;4.572;2023-07-29T05:35:11;19.50;99.90
19898;DHT22;10111;50.814;4.572;2023-07-29T05:37:40;19.50;99.90
19898;DHT22;10111;50.814;4.572;2023-07-29T05:40:07;19.50;99.90
19898;DHT22;10111;50.814;4.572;2023-07-29T05:42:34;19.50;99.90
19898;DHT22;10111;50.814;4.572;2023-07-29T05:45:00;19.60;99.90
19898;DHT22;10111;50.814;4.572;2023-07-29T05:47:26;19.80;99.90
19898;DHT22;10111;50.814;4.572;2023-07-29T05:49:52;19.90;99.90
19898;DHT22;10111;50.814;4.572;2023-07-29T05:52:18;20.00;99.90
19898;DHT22;10111;50.814;4.572;2023-07-29T05:54:44;20.20;99.90
19898;DHT22;10111;50.814;4.572;2023-07-29T05:57:13;20.30;99.90
19898;DHT22;10111;50.814;4.572;2023-07-29T05:59:39;20.40;99.90
19898;DHT22;10111;50.814;4.572;2023-07-29T06:02:05;20.60;99.90
19898;DHT22;10111;50.814;4.572;2023-07-29T06:04:30;20.80;99.90
19898;DHT22;10111;50.814;4.572;2023-07-29T06:06:56;20.80;99.90
19898;DHT22;10111;50.814;4.572;2023-07-29T06:09:22;20.80;99.90
19898;DHT22;10111;50.814;4.572;2023-07-29T06:11:48;20.80;99.90
19898;DHT22;10111;50.814;4.572;2023-07-29T06:14:14;20.80;99.90
19898;DHT22;10111;50.814;4.572;2023-07-29T06:16:39;20.70;99.90
19898;DHT22;10111;50.814;4.572;2023-07-29T06:19:05;20.70;99.90
19898;DHT22;10111;50.814;4.572;2023-07-29T06:21:31;20.80;99.90
19898;DHT22;10111;50.814;4.572;2023-07-29T06:23:56;21.00;99.90
19898;DHT22;10111;50.814;4.572;2023-07-29T06:26:22;21.20;99.90
19898;DHT22;10111;50.814;4.572;2023-07-29T06:28:48;21.60;99.90
19898;DHT22;10111;50.814;4.572;2023-07-29T06:31:13;22.00;99.90
19898;DHT22;10111;50.814;4.572;2023-07-29T06:33:40;22.10;99.90
19898;DHT22;10111;50.814;4.572;2023-07-29T06:36:05;22.30;99.90
19898;DHT22;10111;50.814;4.572;2023-07-29T06:38:31;22.30;99.90
19898;DHT22;10111;50.814;4.572;2023-07-29T06:40:57;22.40;99.90
19898;DHT22;10111;50.814;4.572;2023-07-29T06:43:22;22.60;99.90
19898;DHT22;10111;50.814;4.572;2023-07-29T06:45:48;22.80;99.90
19898;DHT22;10111;50.814;4.572;2023-07-29T06:48:14;22.90;99.90
19898;DHT22;10111;50.814;4.572;2023-07-29T06:50:39;22.80;99.90
19898;DHT22;10111;50.814;4.572;2023-07-29T06:53:06;23.00;99.90
19898;DHT22;10111;50.814;4.572;2023-07-29T06:55:32;23.10;99.90
19898;DHT22;10111;50.814;4.572;2023-07-29T06:57:57;23.10;99.90
19898;DHT22;10111;50.814;4.572;2023-07-29T07:00:23;23.10;99.90
19898;DHT22;10111;50.814;4.572;2023-07-29T07:02:48;23.10;99.90
19898;DHT22;10111;50.814;4.572;2023-07-29T07:05:14;23.00;99.90
19898;DHT22;10111;50.814;4.572;2023-07-29T07:07:40;23.00;99.90
19898;DHT22;10111;50.814;4.572;2023-07-29T07:10:06;23.10;99.90
19898;DHT22;10111;50.814;4.572;2023-07-29T07:12:32;23.20;99.90
19898;DHT22;10111;50.814;4.572;2023-07-29T07:14:57;23.00;99.90
19898;DHT22;10111;50.814;4.572;2023-07-29T07:17:23;22.90;99.90
19898;DHT22;10111;50.814;4.572;2023-07-29T07:19:49;22.90;99.90
19898;DHT22;10111;50.814;4.572;2023-07-29T07:22:15;22.80;99.90
19898;DHT22;10111;50.814;4.572;2023-07-29T07:24:41;22.60;99.90
19898;DHT22;10111;50.814;4.572;2023-07-29T07:27:07;22.60;99.90
19898;DHT22;10111;50.814;4.572;2023-07-29T07:29:32;22.70;99.90
19898;DHT22;10111;50.814;4.572;2023-07-29T07:31:58;22.80;99.90
19898;DHT22;10111;50.814;4.572;2023-07-29T07:34:24;22.70;99.90
19898;DHT22;10111;50.814;4.572;2023-07-29T07:36:50;22.80;99.90
19898;DHT22;10111;50.814;4.572;2023-07-29T07:39:16;22.80;99.90
19898;DHT22;10111;50.814;4.572;2023-07-29T07:41:42;22.80;99.90
19898;DHT22;10111;50.814;4.572;2023-07-29T07:44:08;22.70;99.90
19898;DHT22;10111;50.814;4.572;2023-07-29T07:46:34;22.70;99.90
19898;DHT22;10111;50.814;4.572;2023-07-29T07:49:00;22.60;99.90
19898;DHT22;10111;50.814;4.572;2023-07-29T07:51:25;22.60;99.90
19898;DHT22;10111;50.814;4.572;2023-07-29T07:53:51;22.60;99.90
19898;DHT22;10111;50.814;4.572;2023-07-29T07:56:17;22.50;99.90
19898;DHT22;10111;50.814;4.572;2023-07-29T07:58:42;22.70;99.90
19898;DHT22;10111;50.814;4.572;2023-07-29T08:01:08;22.90;99.90
19898;DHT22;10111;50.814;4.572;2023-07-29T08:03:35;23.10;99.90
19898;DHT22;10111;50.814;4.572;2023-07-29T08:06:01;23.20;99.90
19898;DHT22;10111;50.814;4.572;2023-07-29T08:08:28;23.20;99.90
19898;DHT22;10111;50.814;4.572;2023-07-29T08:10:54;23.40;99.90
19898;DHT22;10111;50.814;4.572;2023-07-29T08:13:22;23.50;99.90
19898;DHT22;10111;50.814;4.572;2023-07-29T08:15:49;23.60;99.90
19898;DHT22;10111;50.814;4.572;2023-07-29T08:18:15;23.80;99.90
19898;DHT22;10111;50.814;4.572;2023-07-29T08:20:41;24.00;99.90
19898;DHT22;10111;50.814;4.572;2023-07-29T08:23:16;23.90;99.90
19898;DHT22;10111;50.814;4.572;2023-07-29T08:25:42;23.80;99.90
19898;DHT22;10111;50.814;4.572;2023-07-29T08:28:07;24.00;99.90
19898;DHT22;10111;50.814;4.572;2023-07-29T08:30:33;24.40;99.90
19898;DHT22;10111;50.814;4.572;2023-07-29T08:32:59;24.60;99.90
19898;DHT22;10111;50.814;4.572;2023-07-29T08:35:24;24.70;99.90
19898;DHT22;10111;50.814;4.572;2023-07-29T08:37:50;24.70;99.90
19898;DHT22;10111;50.814;4.572;2023-07-29T08:40:15;24.50;99.90
19898;DHT22;10111;50.814;4.572;2023-07-29T08:42:41;24.40;99.90
19898;DHT22;10111;50.814;4.572;2023-07-29T08:45:11;24.50;99.90
19898;DHT22;10111;50.814;4.572;2023-07-29T08:47:37;24.50;99.90
19898;DHT22;10111;50.814;4.572;2023-07-29T08:50:03;24.60;99.90
19898;DHT22;10111;50.814;4.572;2023-07-29T08:52:29;24.70;99.90
19898;DHT22;10111;50.814;4.572;2023-07-29T08:54:58;24.90;99.90
19898;DHT22;10111;50.814;4.572;2023-07-29T08:57:24;25.10;99.90
19898;DHT22;10111;50.814;4.572;2023-07-29T08:59:51;25.20;99.90
19898;DHT22;10111;50.814;4.572;2023-07-29T09:02:18;25.20;99.90
19898;DHT22;10111;50.814;4.572;2023-07-29T09:04:43;25.20;99.90
19898;DHT22;10111;50.814;4.572;2023-07-29T09:07:10;25.50;99.90
19898;DHT22;10111;50.814;4.572;2023-07-29T09:09:35;25.70;99.90
19898;DHT22;10111;50.814;4.572;2023-07-29T09:12:01;25.70;99.90
19898;DHT22;10111;50.814;4.572;2023-07-29T09:14:28;25.90;99.90
19898;DHT22;10111;50.814;4.572;2023-07-29T09:16:53;26.10;99.90
19898;DHT22;10111;50.814;4.572;2023-07-29T09:19:19;26.50;99.90
19898;DHT22;10111;50.814;4.572;2023-07-29T09:21:46;26.60;99.90
19898;DHT22;10111;50.814;4.572;2023-07-29T09:24:16;26.80;99.90
19898;DHT22;10111;50.814;4.572;2023-07-29T09:26:49;26.90;99.90
19898;DHT22;10111;50.814;4.572;2023-07-29T09:29:15;26.70;99.90
19898;DHT22;10111;50.814;4.572;2023-07-29T09:31:46;26.80;99.90
19898;DHT22;10111;50.814;4.572;2023-07-29T09:34:15;26.70;99.90
19898;DHT22;10111;50.814;4.572;2023-07-29T09:36:43;26.60;99.90
19898;DHT22;10111;50.814;4.572;2023-07-29T09:39:12;26.40;99.90
19898;DHT22;10111;50.814;4.572;2023-07-29T09:41:38;26.30;99.90
19898;DHT22;10111;50.814;4.572;2023-07-29T09:44:04;26.40;99.90
19898;DHT22;10111;50.814;4.572;2023-07-29T09:46:37;26.40;99.90
19898;DHT22;10111;50.814;4.572;2023-07-29T09:49:04;26.30;99.90
19898;DHT22;10111;50.814;4.572;2023-07-29T09:51:31;26.30;99.90
19898;DHT22;10111;50.814;4.572;2023-07-29T09:53:57;26.40;99.90
19898;DHT22;10111;50.814;4.572;2023-07-29T09:56:27;26.60;99.90
19898;DHT22;10111;50.814;4.572;2023-07-29T09:58:54;26.80;99.90
19898;DHT22;10111;50.814;4.572;2023-07-29T10:01:20;26.90;99.90
19898;DHT22;10111;50.814;4.572;2023-07-29T10:03:47;27.00;99.90
19898;DHT22;10111;50.814;4.572;2023-07-29T10:06:15;27.10;99.90
19898;DHT22;10111;50.814;4.572;2023-07-29T10:08:43;27.20;99.90
19898;DHT22;10111;50.814;4.572;2023-07-29T10:11:10;27.10;99.90
19898;DHT22;10111;50.814;4.572;2023-07-29T10:13:37;27.10;99.90
19898;DHT22;10111;50.814;4.572;2023-07-29T10:16:03;27.00;99.90
19898;DHT22;10111;50.814;4.572;2023-07-29T10:18:33;26.70;99.90
19898;DHT22;10111;50.814;4.572;2023-07-29T10:21:00;26.40;99.90
19898;DHT22;10111;50.814;4.572;2023-07-29T10:23:27;26.10;99.90
19898;DHT22;10111;50.814;4.572;2023-07-29T10:26:05;25.80;99.90
19898;DHT22;10111;50.814;4.572;2023-07-29T10:28:31;25.70;99.90
19898;DHT22;10111;50.814;4.572;2023-07-29T10:30:58;25.50;99.90
19898;DHT22;10111;50.814;4.572;2023-07-29T10:33:25;25.30;99.90
19898;DHT22;10111;50.814;4.572;2023-07-29T10:35:52;24.80;99.90
19898;DHT22;10111;50.814;4.572;2023-07-29T10:38:22;24.50;99.90
19898;DHT22;10111;50.814;4.572;2023-07-29T10:40:51;24.10;99.90
19898;DHT22;10111;50.814;4.572;2023-07-29T10:43:24;23.80;99.90
19898;DHT22;10111;50.814;4.572;2023-07-29T10:45:49;23.70;99.90
19898;DHT22;10111;50.814;4.572;2023-07-29T10:48:41;23.70;99.90
19898;DHT22;10111;50.814;4.572;2023-07-29T10:51:36;24.20;99.90
19898;DHT22;10111;50.814;4.572;2023-07-29T10:54:04;24.70;99.90
19898;DHT22;10111;50.814;4.572;2023-07-29T10:56:36;25.00;99.90
19898;DHT22;10111;50.814;4.572;2023-07-29T10:59:30;25.20;99.90
19898;DHT22;10111;50.814;4.572;2023-07-29T11:01:58;25.40;99.90
19898;DHT22;10111;50.814;4.572;2023-07-29T11:04:25;25.50;99.90
19898;DHT22;10111;50.814;4.572;2023-07-29T11:18:09;24.90;99.90
19898;DHT22;10111;50.814;4.572;2023-07-29T11:20:29;24.70;99.90
19898;DHT22;10111;50.814;4.572;2023-07-29T11:22:56;24.70;99.90
19898;DHT22;10111;50.814;4.572;2023-07-29T11:25:23;24.80;99.90
19898;DHT22;10111;50.814;4.572;2023-07-29T11:27:53;24.80;99.90
19898;DHT22;10111;50.814;4.572;2023-07-29T11:30:19;24.80;99.90
19898;DHT22;10111;50.814;4.572;2023-07-29T11:32:46;24.70;99.90
19898;DHT22;10111;50.814;4.572;2023-07-29T11:35:17;24.70;99.90
19898;DHT22;10111;50.814;4.572;2023-07-29T11:37:45;24.70;99.90
19898;DHT22;10111;50.814;4.572;2023-07-29T11:40:19;24.60;99.90
19898;DHT22;10111;50.814;4.572;2023-07-29T11:42:46;24.60;99.90
19898;DHT22;10111;50.814;4.572;2023-07-29T11:45:13;24.60;99.90
19898;DHT22;10111;50.814;4.572;2023-07-29T11:47:39;24.60;99.90
19898;DHT22;10111;50.814;4.572;2023-07-29T11:50:07;24.70;99.90
19898;DHT22;10111;50.814;4.572;2023-07-29T11:52:37;24.80;99.90
19898;DHT22;10111;50.814;4.572;2023-07-29T11:55:05;24.90;99.90
19898;DHT22;10111;50.814;4.572;2023-07-29T11:57:33;24.90;99.90
19898;DHT22;10111;50.814;4.572;2023-07-29T12:00:04;24.80;99.90
19898;DHT22;10111;50.814;4.572;2023-07-29T12:02:32;24.80;99.90
19898;DHT22;10111;50.814;4.572;2023-07-29T12:05:01;24.80;99.90
19898;DHT22;10111;50.814;4.572;2023-07-29T12:07:28;24.80;99.90
19898;DHT22;10111;50.814;4.572;2023-07-29T12:09:54;24.90;99.90
19898;DHT22;10111;50.814;4.572;2023-07-29T12:12:22;25.00;99.90
19898;DHT22;10111;50.814;4.572;2023-07-29T12:14:48;25.10;99.90
19898;DHT22;10111;50.814;4.572;2023-07-29T12:17:15;25.10;99.90
19898;DHT22;10111;50.814;4.572;2023-07-29T12:19:41;25.10;99.90
19898;DHT22;10111;50.814;4.572;2023-07-29T12:22:09;25.10;99.90
19898;DHT22;10111;50.814;4.572;2023-07-29T12:24:40;25.10;99.90
19898;DHT22;10111;50.814;4.572;2023-07-29T12:27:11;25.30;99.90
19898;DHT22;10111;50.814;4.572;2023-07-29T12:29:41;25.50;99.90
19898;DHT22;10111;50.814;4.572;2023-07-29T12:32:07;25.80;99.90
19898;DHT22;10111;50.814;4.572;2023-07-29T12:34:33;25.90;99.90
19898;DHT22;10111;50.814;4.572;2023-07-29T12:36:59;26.10;99.90
19898;DHT22;10111;50.814;4.572;2023-07-29T12:39:29;25.90;99.90
19898;DHT22;10111;50.814;4.572;2023-07-29T12:41:57;25.70;99.90
19898;DHT22;10111;50.814;4.572;2023-07-29T12:44:24;25.30;99.90
19898;DHT22;10111;50.814;4.572;2023-07-29T12:46:50;24.80;99.90
19898;DHT22;10111;50.814;4.572;2023-07-29T12:49:17;24.40;99.90
19898;DHT22;10111;50.814;4.572;2023-07-29T12:51:42;24.00;99.90
19898;DHT22;10111;50.814;4.572;2023-07-29T12:54:08;23.80;99.90
19898;DHT22;10111;50.814;4.572;2023-07-29T12:56:34;23.80;99.90
19898;DHT22;10111;50.814;4.572;2023-07-29T12:59:01;23.80;99.90
19898;DHT22;10111;50.814;4.572;2023-07-29T13:01:27;23.70;99.90
19898;DHT22;10111;50.814;4.572;2023-07-29T13:03:54;23.70;99.90
19898;DHT22;10111;50.814;4.572;2023-07-29T13:06:20;23.60;99.90
19898;DHT22;10111;50.814;4.572;2023-07-29T13:08:47;23.80;99.90
19898;DHT22;10111;50.814;4.572;2023-07-29T13:11:14;24.00;99.90
19898;DHT22;10111;50.814;4.572;2023-07-29T13:13:40;24.10;99.90
19898;DHT22;10111;50.814;4.572;2023-07-29T13:16:05;24.30;99.90
19898;DHT22;10111;50.814;4.572;2023-07-29T13:18:32;24.40;99.90
19898;DHT22;10111;50.814;4.572;2023-07-29T13:20:57;24.40;99.90
19898;DHT22;10111;50.814;4.572;2023-07-29T13:23:24;24.40;99.90
19898;DHT22;10111;50.814;4.572;2023-07-29T13:25:50;24.40;99.90
19898;DHT22;10111;50.814;4.572;2023-07-29T13:28:16;24.20;99.90
19898;DHT22;10111;50.814;4.572;2023-07-29T13:30:42;24.10;99.90
19898;DHT22;10111;50.814;4.572;2023-07-29T13:33:08;24.20;99.90
19898;DHT22;10111;50.814;4.572;2023-07-29T13:35:33;24.10;99.90
19898;DHT22;10111;50.814;4.572;2023-07-29T13:38:00;24.40;99.90
19898;DHT22;10111;50.814;4.572;2023-07-29T13:40:26;24.70;99.90
19898;DHT22;10111;50.814;4.572;2023-07-29T13:42:51;24.80;99.90
19898;DHT22;10111;50.814;4.572;2023-07-29T13:45:18;25.00;99.90
19898;DHT22;10111;50.814;4.572;2023-07-29T13:47:43;25.20;99.90
19898;DHT22;10111;50.814;4.572;2023-07-29T13:50:09;25.30;99.90
19898;DHT22;10111;50.814;4.572;2023-07-29T13:52:36;25.30;99.90
19898;DHT22;10111;50.814;4.572;2023-07-29T13:55:02;25.10;99.90
19898;DHT22;10111;50.814;4.572;2023-07-29T13:57:28;25.00;99.90
19898;DHT22;10111;50.814;4.572;2023-07-29T13:59:53;24.90;99.90
19898;DHT22;10111;50.814;4.572;2023-07-29T14:02:19;24.90;99.90
19898;DHT22;10111;50.814;4.572;2023-07-29T14:04:45;25.10;99.90
19898;DHT22;10111;50.814;4.572;2023-07-29T14:07:10;25.10;99.90
19898;DHT22;10111;50.814;4.572;2023-07-29T14:09:36;25.20;99.90
19898;DHT22;10111;50.814;4.572;2023-07-29T14:12:02;25.10;99.90
19898;DHT22;10111;50.814;4.572;2023-07-29T14:14:28;25.10;99.90
19898;DHT22;10111;50.814;4.572;2023-07-29T14:16:55;25.30;99.90
19898;DHT22;10111;50.814;4.572;2023-07-29T14:19:20;25.50;99.90
19898;DHT22;10111;50.814;4.572;2023-07-29T14:21:46;25.40;99.90
19898;DHT22;10111;50.814;4.572;2023-07-29T14:24:12;25.40;99.90
19898;DHT22;10111;50.814;4.572;2023-07-29T14:26:37;25.40;99.90
19898;DHT22;10111;50.814;4.572;2023-07-29T14:29:03;25.30;99.90
19898;DHT22;10111;50.814;4.572;2023-07-29T14:31:28;25.10;99.90
19898;DHT22;10111;50.814;4.572;2023-07-29T14:33:54;25.10;99.90
19898;DHT22;10111;50.814;4.572;2023-07-29T14:36:20;25.20;99.90
19898;DHT22;10111;50.814;4.572;2023-07-29T14:38:46;25.40;99.90
19898;DHT22;10111;50.814;4.572;2023-07-29T14:41:12;25.50;99.90
19898;DHT22;10111;50.814;4.572;2023-07-29T14:43:37;25.10;99.90
19898;DHT22;10111;50.814;4.572;2023-07-29T14:46:03;25.10;99.90
19898;DHT22;10111;50.814;4.572;2023-07-29T14:48:29;24.90;99.90
19898;DHT22;10111;50.814;4.572;2023-07-29T14:50:55;24.90;99.90
19898;DHT22;10111;50.814;4.572;2023-07-29T14:53:20;25.00;99.90
19898;DHT22;10111;50.814;4.572;2023-07-29T14:55:46;25.10;99.90
19898;DHT22;10111;50.814;4.572;2023-07-29T14:58:12;25.40;99.90
19898;DHT22;10111;50.814;4.572;2023-07-29T15:00:37;25.60;99.90
19898;DHT22;10111;50.814;4.572;2023-07-29T15:03:03;25.70;99.90
19898;DHT22;10111;50.814;4.572;2023-07-29T15:05:29;25.60;99.90
19898;DHT22;10111;50.814;4.572;2023-07-29T15:07:55;25.50;99.90
19898;DHT22;10111;50.814;4.572;2023-07-29T15:10:20;25.50;99.90
19898;DHT22;10111;50.814;4.572;2023-07-29T15:12:47;25.50;99.90
19898;DHT22;10111;50.814;4.572;2023-07-29T15:15:12;25.40;99.90
19898;DHT22;10111;50.814;4.572;2023-07-29T15:17:38;25.20;99.90
19898;DHT22;10111;50.814;4.572;2023-07-29T15:20:05;25.20;99.90
19898;DHT22;10111;50.814;4.572;2023-07-29T15:22:31;25.30;99.90
19898;DHT22;10111;50.814;4.572;2023-07-29T15:25:00;25.50;99.90
19898;DHT22;10111;50.814;4.572;2023-07-29T15:27:27;25.50;99.90
19898;DHT22;10111;50.814;4.572;2023-07-29T15:29:53;25.50;99.90
19898;DHT22;10111;50.814;4.572;2023-07-29T15:32:19;25.40;99.90
19898;DHT22;10111;50.814;4.572;2023-07-29T15:34:45;25.20;99.90
19898;DHT22;10111;50.814;4.572;2023-07-29T15:37:10;25.10;99.90
19898;DHT22;10111;50.814;4.572;2023-07-29T15:39:36;25.10;99.90
19898;DHT22;10111;50.814;4.572;2023-07-29T15:42:02;25.00;99.90